Terminal Aerodrome Forecast
Issued by NWS Brownsville, TX

Home | Current Version | Previous Version | Text Only | Print | Product List | Glossary On
Versions: 1 2 3 4 5 6 7 8 9 10 11 12 13 14 15
000
FTUS44 KBRO 040617 CCA
TAFMFE
TAF COR
KMFE 040617Z 0406/0506 15012G20KT P6SM OVC010
     FM041300 15012G17KT P6SM BKN012
     FM041500 16015G20KT P6SM SCT030
     FM050100 14010KT 5SM BR BKN015=

USA.gov is the U.S. government's official web portal to all federal, state and local government web resources and services.